Saturday, December 16, 2017, 5:45 AM EST
Back to Local

KBED, Bedford Hanscom Field

Location: Concord, MA, United States Lat: 42.467
Local Time: 5:45 AM EST (10:45 GMT) Lon: -71.3
Time Zone: US/Eastern Elev: 134 ft

Show me the last for .
Show Decoded

2017-12-16 04:56 METAR KBED 160956Z AUTO 24003KT 10SM CLR M07/M10 A2983 RMK AO2 SLP117 T10721100
                 =
2017-12-16 03:56 METAR KBED 160856Z AUTO 26005KT 10SM SCT100 M07/M10 A2981 RMK AO2 SLP111
                 T10671100 53007 =
2017-12-16 02:56 METAR KBED 160756Z AUTO 26005KT 10SM OVC110 M06/M10 A2980 RMK AO2 SLP109
                 T10611100 =
2017-12-16 01:56 METAR KBED 160656Z AUTO 28005KT 10SM OVC120 M06/M09 A2979 RMK AO2 SLP104
                 T10611094 =
2017-12-16 00:56 METAR KBED 160556Z AUTO 28005KT 10SM FEW060 FEW070 OVC100 M06/M08 A2979 RMK AO2
                 SLP104 60000 T10611083 11044 21061 58015 =
2017-12-15 23:56 METAR KBED 160456Z AUTO 29004KT 10SM FEW065 SCT080 BKN100 M06/M08 A2980 RMK AO2
                 SLP107 T10561083 410391122 =
2017-12-15 22:56 METAR KBED 160356Z AUTO 00000KT 9SM SCT065 BKN090 OVC110 M06/M08 A2982 RMK AO2
                 SNE54 SLP117 P0000 T10561078 =
2017-12-15 21:56 METAR KBED 160256Z 23003KT 6SM -SN OVC040 M06/M08 A2983 RMK AO2 SNB13 SLP119
                 P0000 60000 T10561083 58012 =
2017-12-15 20:56 METAR KBED 160156Z 26004KT 10SM OVC075 M05/M11 A2985 RMK AO2 SLP126 T10501106 =
2017-12-15 19:56 METAR KBED 160056Z 21004KT 10SM OVC080 M05/M11 A2987 RMK AO2 SLP131 T10501106 =
2017-12-15 18:56 METAR KBED 152356Z 21004KT 10SM OVC090 M05/M10 A2987 RMK AO2 SLP132 T10501100
                 11039 21050 55024 =
2017-12-15 17:56 METAR KBED 152256Z 05003KT 10SM OVC090 M04/M11 A2986 RMK AO2 SLP129 T10441106 =
2017-12-15 16:56 METAR KBED 152156Z 00000KT 7SM OVC070 M04/M12 A2990 RMK AO2 SLP141 T10391117 =
2017-12-15 15:56 METAR KBED 152056Z 18003KT 10SM OVC100 M04/M12 A2994 RMK AO2 SLP156 T10441117
                 56021 =
2017-12-15 14:56 METAR KBED 151956Z 21003KT 10SM OVC090 M04/M11 A2996 RMK AO2 SLP163 T10441111 =
2017-12-15 13:56 METAR KBED 151856Z 22003KT 10SM OVC100 M04/M11 A2997 RMK AO2 SLP167 T10441111 =
2017-12-15 12:56 METAR KBED 151756Z 21004KT 10SM FEW120 M04/M12 A3000 RMK AO2 SLP176 T10441117
                 11044 21122 58030 =
2017-12-15 11:56 METAR KBED 151656Z VRB03KT 10SM CLR M05/M12 A3003 RMK AO2 SLP185 T10501122 =
2017-12-15 10:56 METAR KBED 151556Z 20003KT 10SM SCT200 M06/M12 A3006 RMK AO2 SLP198 T10611117 =
2017-12-15 09:56 METAR KBED 151456Z 21004KT 10SM CLR M07/M13 A3009 RMK AO2 SLP207 T10721133 53012
                 =
2017-12-15 08:56 METAR KBED 151356Z 20003KT 10SM SCT200 M09/M13 A3007 RMK AO2 SLP203 T10891133 =
2017-12-15 07:56 METAR KBED 151256Z 22003KT 10SM SCT200 M11/M14 A3007 RMK AO2 SLP200 T11111144 =
2017-12-15 06:56 METAR KBED 151156Z 22004KT 10SM SCT200 M12/M16 A3005 RMK AO2 SLP196 T11221156
                 11094 21122 53007 =
2017-12-15 05:56 METAR KBED 151056Z AUTO 00000KT 10SM CLR M12/M14 A3004 RMK AO2 SLP192 T11171144
                 =

Support USWX by starting your Amazon purchase here.